createdAt,value
2022-11-29T00:00:41.114Z,97380.88
2022-11-29T00:03:07.737Z,97369.28
2022-11-29T00:05:34.738Z,97376.97
2022-11-29T00:08:01.134Z,97367.16
2022-11-29T00:10:27.582Z,97373.13
2022-11-29T00:12:53.974Z,97375.34
2022-11-29T00:15:20.485Z,97377.53
2022-11-29T00:17:46.891Z,97370.69
2022-11-29T00:20:13.449Z,97365.31
2022-11-29T00:22:39.903Z,97370.81
2022-11-29T00:25:06.759Z,97374.09
2022-11-29T00:27:33.291Z,97375.03
2022-11-29T00:29:59.777Z,97369.66
2022-11-29T00:32:26.297Z,97368.56
2022-11-29T00:34:52.729Z,97360.09
2022-11-29T00:37:21.382Z,97368.13
2022-11-29T00:39:47.817Z,97368.75
2022-11-29T00:42:15.861Z,97366.56
2022-11-29T00:44:42.702Z,97379.91
2022-11-29T00:47:09.491Z,97373.75
2022-11-29T00:49:35.930Z,97364.34
2022-11-29T00:52:02.375Z,97371.47
2022-11-29T00:54:28.768Z,97373.50
2022-11-29T00:56:55.249Z,97369.34
2022-11-29T00:59:21.685Z,97366.38
2022-11-29T01:01:48.202Z,97370.34
2022-11-29T01:04:14.663Z,97359.50
2022-11-29T01:06:41.133Z,97358.09
2022-11-29T01:09:07.751Z,97365.63
2022-11-29T01:11:34.789Z,97365.47
2022-11-29T01:14:01.987Z,97366.56
2022-11-29T01:16:30.326Z,97361.97
2022-11-29T01:18:56.866Z,97365.81
2022-11-29T01:21:24.485Z,97362.78
2022-11-29T01:23:52.077Z,97359.19
2022-11-29T01:26:20.507Z,97359.47
2022-11-29T01:28:48.479Z,97366.56
2022-11-29T01:31:16.730Z,97366.72
2022-11-29T01:33:43.668Z,97356.63
2022-11-29T01:36:10.823Z,97355.91
2022-11-29T01:38:39.053Z,97356.34
2022-11-29T01:41:06.735Z,97361.53
2022-11-29T01:43:33.644Z,97361.69
2022-11-29T01:46:00.226Z,97362.78
2022-11-29T01:48:29.302Z,97359.19
2022-11-29T01:51:00.672Z,97344.88
2022-11-29T01:53:27.749Z,97355.53
2022-11-29T01:55:56.211Z,97364.53
2022-11-29T01:58:22.783Z,97359.19
2022-11-29T02:00:49.486Z,97361.38
2022-11-29T02:03:16.798Z,97362.34
2022-11-29T02:05:44.846Z,97345.66
2022-11-29T02:08:13.494Z,97354.31
2022-11-29T02:10:42.679Z,97356.50
2022-11-29T02:13:13.935Z,97364.06
2022-11-29T02:15:46.725Z,97360.91
2022-11-29T02:18:15.555Z,97360.91
2022-11-29T02:21:00.610Z,97361.25
2022-11-29T02:23:40.711Z,97354.66
2022-11-29T02:26:21.446Z,97360.03
2022-11-29T02:29:06.533Z,97358.75
2022-11-29T02:31:47.933Z,97361.25
2022-11-29T02:34:14.350Z,97362.34
2022-11-29T02:36:53.179Z,97366.00
2022-11-29T02:39:39.203Z,97361.94
2022-11-29T02:42:24.261Z,97367.13
2022-11-29T02:44:53.905Z,97364.78
2022-11-29T02:47:23.077Z,97365.88
2022-11-29T02:49:49.496Z,97368.84
2022-11-29T02:52:25.669Z,97363.19
2022-11-29T02:54:59.069Z,97356.91
2022-11-29T02:57:44.430Z,97364.00
2022-11-29T03:00:16.142Z,97366.81
2022-11-29T03:02:48.430Z,97362.53
2022-11-29T03:05:33.537Z,97366.81
2022-11-29T03:08:00.003Z,97371.06
2022-11-29T03:10:29.253Z,97364.63
2022-11-29T03:12:55.786Z,97368.72
2022-11-29T03:15:25.165Z,97367.63
2022-11-29T03:18:02.831Z,97368.25
2022-11-29T03:20:37.608Z,97379.13
2022-11-29T03:23:12.126Z,97375.03
2022-11-29T03:25:38.501Z,97370.44
2022-11-29T03:28:10.635Z,97367.00
2022-11-29T03:30:38.486Z,97364.03
2022-11-29T03:33:10.219Z,97365.91
2022-11-29T03:35:55.230Z,97365.44
2022-11-29T03:38:21.757Z,97369.84
2022-11-29T03:40:53.033Z,97374.41
2022-11-29T03:43:26.705Z,97365.44
2022-11-29T03:46:06.093Z,97358.84
2022-11-29T03:48:43.743Z,97376.34
2022-11-29T03:51:19.770Z,97378.84
2022-11-29T03:54:01.990Z,97382.94
2022-11-29T03:56:35.984Z,97378.38
2022-11-29T03:59:05.546Z,97379.94
2022-11-29T04:01:40.914Z,97388.78
2022-11-29T04:04:16.222Z,97381.06
2022-11-29T04:06:53.706Z,97390.06
2022-11-29T04:09:30.093Z,97395.41
2022-11-29T04:12:04.149Z,97397.00
2022-11-29T04:14:49.007Z,97397.00
2022-11-29T04:17:24.862Z,97396.22
2022-11-29T04:19:51.308Z,97406.31
2022-11-29T04:22:17.828Z,97393.53
2022-11-29T04:24:56.936Z,97406.47
2022-11-29T04:27:26.491Z,97406.78
2022-11-29T04:30:08.919Z,97400.16
2022-11-29T04:32:54.155Z,97406.63
2022-11-29T04:35:41.622Z,97408.03
2022-11-29T04:38:19.971Z,97405.03
2022-11-29T04:40:52.140Z,97402.84
2022-11-29T04:43:21.701Z,97398.59
2022-11-29T04:46:07.061Z,97389.94
2022-11-29T04:48:39.669Z,97397.66
2022-11-29T04:51:22.370Z,97402.06
2022-11-29T04:53:52.054Z,97401.75
2022-11-29T04:56:38.018Z,97403.66
2022-11-29T04:59:09.009Z,97400.47
2022-11-29T05:01:37.715Z,97405.84
2022-11-29T05:04:23.457Z,97402.84
2022-11-29T05:06:54.979Z,97403.81
2022-11-29T05:09:35.921Z,97405.56
2022-11-29T05:12:20.962Z,97404.59
2022-11-29T05:14:47.456Z,97410.09
2022-11-29T05:17:32.526Z,97421.31
2022-11-29T05:20:08.209Z,97410.31
2022-11-29T05:22:40.911Z,97411.88
2022-11-29T05:25:21.714Z,97409.66
2022-11-29T05:27:58.488Z,97431.69
2022-11-29T05:30:32.445Z,97449.22
2022-11-29T05:33:24.938Z,97450.13
2022-11-29T05:35:59.974Z,97432.53
2022-11-29T05:38:29.374Z,97424.38
2022-11-29T05:41:11.626Z,97440.97
2022-11-29T05:43:52.335Z,97439.88
2022-11-29T05:46:18.850Z,97428.16
2022-11-29T05:48:52.101Z,97428.41
2022-11-29T05:51:24.603Z,97437.22
2022-11-29T05:53:58.019Z,97436.22
2022-11-29T05:56:36.526Z,97430.09
2022-11-29T05:59:29.393Z,97434.66
2022-11-29T06:01:56.379Z,97420.50
2022-11-29T06:04:41.603Z,97421.63
2022-11-29T06:07:34.325Z,97423.94
2022-11-29T06:10:04.297Z,97425.94
2022-11-29T06:12:35.861Z,97425.16
2022-11-29T06:15:11.823Z,97428.31
2022-11-29T06:17:48.895Z,97411.22
2022-11-29T06:20:34.221Z,97418.44
2022-11-29T06:23:02.021Z,97423.31
2022-11-29T06:25:41.998Z,97427.72
2022-11-29T06:28:27.609Z,97430.69
2022-11-29T06:31:03.440Z,97425.50
2022-11-29T06:33:37.755Z,97415.97
2022-11-29T06:36:06.509Z,97419.53
2022-11-29T06:38:34.713Z,97428.31
2022-11-29T06:41:02.316Z,97431.31
2022-11-29T06:43:31.634Z,97434.28
2022-11-29T06:46:04.055Z,97430.38
2022-11-29T06:48:35.053Z,97429.00
2022-11-29T06:51:13.249Z,97440.00
2022-11-29T06:53:54.293Z,97436.97
2022-11-29T06:56:34.619Z,97438.06
2022-11-29T06:59:06.997Z,97438.25
2022-11-29T07:01:45.037Z,97440.38
2022-11-29T07:04:11.556Z,97442.19
2022-11-29T07:06:39.065Z,97447.69
2022-11-29T07:09:11.415Z,97455.56
2022-11-29T07:11:38.160Z,97458.56
2022-11-29T07:14:04.654Z,97464.25
2022-11-29T07:16:50.184Z,97448.91
2022-11-29T07:19:40.918Z,97459.38
2022-11-29T07:22:16.557Z,97470.22
2022-11-29T07:25:03.837Z,97477.78
2022-11-29T07:27:41.137Z,97473.03
2022-11-29T07:30:11.190Z,97470.59
2022-11-29T07:32:40.376Z,97464.63
2022-11-29T07:35:29.481Z,97467.53
2022-11-29T07:38:16.942Z,97465.50
2022-11-29T07:40:59.717Z,97473.66
2022-11-29T07:43:45.062Z,97483.28
2022-11-29T07:46:11.693Z,97479.91
2022-11-29T07:48:38.146Z,97482.53
2022-11-29T07:51:04.642Z,97495.44
2022-11-29T07:53:31.121Z,97496.56
2022-11-29T07:55:57.890Z,97494.47
2022-11-29T07:58:24.463Z,97495.00
2022-11-29T08:00:51.181Z,97494.59
2022-11-29T08:03:17.659Z,97490.44
2022-11-29T08:05:45.918Z,97488.66
2022-11-29T08:08:12.364Z,97485.19
2022-11-29T08:10:40.964Z,97481.19
2022-11-29T08:13:07.365Z,97475.22
2022-11-29T08:15:33.886Z,97480.22
2022-11-29T08:18:01.350Z,97485.88
2022-11-29T08:20:27.781Z,97484.59
2022-11-29T08:22:58.899Z,97483.41
2022-11-29T08:25:26.218Z,97480.88
2022-11-29T08:27:52.735Z,97483.88
2022-11-29T08:30:22.216Z,97489.84
2022-11-29T08:32:52.161Z,97483.88
2022-11-29T08:35:19.914Z,97481.41
2022-11-29T08:37:47.773Z,97477.91
2022-11-29T08:40:14.541Z,97490.81
2022-11-29T08:42:43.414Z,97485.28
2022-11-29T08:45:10.449Z,97491.41
2022-11-29T08:47:37.631Z,97486.75
2022-11-29T08:50:12.428Z,97486.28
2022-11-29T08:52:59.249Z,97491.00
2022-11-29T08:55:26.956Z,97493.97
2022-11-29T08:57:54.900Z,97495.56
2022-11-29T09:00:21.390Z,97487.75
2022-11-29T09:02:48.526Z,97491.16
2022-11-29T09:05:15.852Z,97486.44
2022-11-29T09:07:45.192Z,97498.25
2022-11-29T09:10:12.224Z,97502.03
2022-11-29T09:12:39.602Z,97488.22
2022-11-29T09:15:07.278Z,97491.53
2022-11-29T09:17:33.998Z,97495.91
2022-11-29T09:20:00.575Z,97503.47
2022-11-29T09:22:27.061Z,97509.31
2022-11-29T09:24:53.665Z,97505.41
2022-11-29T09:27:20.106Z,97490.47
2022-11-29T09:29:46.878Z,97498.84
2022-11-29T09:32:13.741Z,97500.22
2022-11-29T09:34:44.400Z,97499.75
2022-11-29T09:37:11.126Z,97501.97
2022-11-29T09:39:42.636Z,97491.00
2022-11-29T09:42:18.302Z,97494.41
2022-11-29T09:44:59.258Z,97497.72
2022-11-29T09:47:44.715Z,97495.38
2022-11-29T09:50:26.750Z,97493.72
2022-11-29T09:53:08.419Z,97489.47
2022-11-29T09:55:56.117Z,97491.41
2022-11-29T09:58:26.341Z,97476.25
2022-11-29T10:00:56.493Z,97489.84
2022-11-29T10:03:25.588Z,97482.94
2022-11-29T10:05:59.199Z,97483.25
2022-11-29T10:08:45.868Z,97485.94
2022-11-29T10:11:16.267Z,97491.47
2022-11-29T10:13:45.997Z,97491.97
2022-11-29T10:16:20.851Z,97489.28
2022-11-29T10:18:54.449Z,97487.06
2022-11-29T10:21:23.185Z,97491.81
2022-11-29T10:23:54.791Z,97491.34
2022-11-29T10:26:22.991Z,97491.81
2022-11-29T10:28:49.793Z,97492.75
2022-11-29T10:31:16.238Z,97489.59
2022-11-29T10:33:44.288Z,97488.97
2022-11-29T10:36:26.027Z,97491.03
2022-11-29T10:38:57.622Z,97492.81
2022-11-29T10:41:24.867Z,97493.09
2022-11-29T10:43:52.162Z,97499.09
2022-11-29T10:46:28.789Z,97496.91
2022-11-29T10:48:56.185Z,97498.00
2022-11-29T10:51:22.618Z,97504.47
2022-11-29T10:53:49.623Z,97500.50
2022-11-29T10:56:18.944Z,97504.16
2022-11-29T10:58:54.810Z,97499.28
2022-11-29T11:01:21.848Z,97509.84
2022-11-29T11:03:53.449Z,97506.84
2022-11-29T11:06:24.433Z,97507.63
2022-11-29T11:08:54.907Z,97500.06
2022-11-29T11:11:31.062Z,97506.41
2022-11-29T11:13:58.585Z,97501.03
2022-11-29T11:16:26.872Z,97504.94
2022-11-29T11:18:53.891Z,97504.94
2022-11-29T11:21:21.598Z,97501.66
2022-11-29T11:23:50.841Z,97505.44
2022-11-29T11:26:17.341Z,97514.28
2022-11-29T11:28:49.829Z,97518.06
2022-11-29T11:31:24.829Z,97516.00
2022-11-29T11:33:51.367Z,97513.63
2022-11-29T11:36:20.607Z,97515.19
2022-11-29T11:38:47.002Z,97516.31
2022-11-29T11:41:21.021Z,97521.66
2022-11-29T11:43:59.997Z,97516.78
2022-11-29T11:46:58.877Z,97517.75
2022-11-29T11:49:29.481Z,97518.72
2022-11-29T11:51:57.264Z,97520.75
2022-11-29T11:54:23.679Z,97517.13
2022-11-29T11:56:50.150Z,97518.84
2022-11-29T11:59:21.702Z,97510.19
2022-11-29T12:01:48.206Z,97512.06
2022-11-29T12:04:30.223Z,97520.75
2022-11-29T12:06:58.653Z,97516.81
2022-11-29T12:09:34.161Z,97514.91
2022-11-29T12:12:00.612Z,97526.91
2022-11-29T12:14:36.794Z,97525.31
2022-11-29T12:17:18.538Z,97515.06
2022-11-29T12:19:52.813Z,97519.34
2022-11-29T12:22:23.523Z,97528.50
2022-11-29T12:24:55.086Z,97528.63
2022-11-29T12:27:21.667Z,97525.31
2022-11-29T12:29:48.273Z,97527.38
2022-11-29T12:32:39.310Z,97520.59
2022-11-29T12:35:08.507Z,97530.69
2022-11-29T12:37:34.874Z,97527.09
2022-11-29T12:40:11.341Z,97535.63
2022-11-29T12:42:40.898Z,97535.75
2022-11-29T12:45:25.680Z,97528.50
2022-11-29T12:47:54.315Z,97533.84
2022-11-29T12:50:20.752Z,97533.25
2022-11-29T12:52:56.327Z,97537.16
2022-11-29T12:55:22.710Z,97534.97
2022-11-29T12:58:04.347Z,97531.81
2022-11-29T13:00:41.008Z,97527.38
2022-11-29T13:03:24.848Z,97533.84
2022-11-29T13:06:12.494Z,97532.28
2022-11-29T13:08:44.967Z,97527.22
2022-11-29T13:11:19.246Z,97539.31
2022-11-29T13:13:48.418Z,97558.81
2022-11-29T13:16:33.929Z,97566.44
2022-11-29T13:19:05.107Z,97555.44
2022-11-29T13:21:31.547Z,97571.19
2022-11-29T13:24:08.236Z,97572.44
2022-11-29T13:26:35.780Z,97569.69
2022-11-29T13:29:03.455Z,97561.88
2022-11-29T13:31:30.506Z,97570.66
2022-11-29T13:34:01.010Z,97583.03
2022-11-29T13:36:30.618Z,97576.09
2022-11-29T13:39:09.214Z,97575.22
2022-11-29T13:41:54.181Z,97569.50
2022-11-29T13:44:27.602Z,97575.13
2022-11-29T13:47:06.738Z,97566.31
2022-11-29T13:49:52.929Z,97565.09
2022-11-29T13:52:39.651Z,97579.19
2022-11-29T13:55:12.335Z,97577.91
2022-11-29T14:00:42.651Z,97563.78
2022-11-29T14:03:18.459Z,97568.47
2022-11-29T14:05:46.859Z,97564.50
2022-11-29T14:09:10.399Z,97558.63
2022-11-29T14:11:29.840Z,97570.34
2022-11-29T14:14:08.459Z,97573.16
2022-11-29T14:16:34.891Z,97560.63
2022-11-29T14:19:10.397Z,97557.81
2022-11-29T14:21:55.979Z,97559.03
2022-11-29T14:24:37.855Z,97555.75
2022-11-29T14:27:10.541Z,97553.78
2022-11-29T14:29:55.273Z,97553.41
2022-11-29T14:32:21.837Z,97559.81
2022-11-29T14:34:53.083Z,97561.59
2022-11-29T14:37:23.947Z,97559.41
2022-11-29T14:39:52.790Z,97563.91
2022-11-29T14:42:21.314Z,97563.41
2022-11-29T14:44:52.832Z,97557.19
2022-11-29T14:47:27.242Z,97550.88
2022-11-29T14:49:55.428Z,97553.97
2022-11-29T14:52:33.614Z,97546.91
2022-11-29T14:55:02.767Z,97549.81
2022-11-29T14:57:47.454Z,97553.06
2022-11-29T15:00:15.611Z,97549.88
2022-11-29T15:02:47.910Z,97549.63
2022-11-29T15:05:19.557Z,97543.66
2022-11-29T15:07:50.444Z,97548.69
2022-11-29T15:10:22.761Z,97543.31
2022-11-29T15:12:49.525Z,97540.84
2022-11-29T15:15:15.904Z,97543.03
2022-11-29T15:17:49.127Z,97545.34
2022-11-29T15:20:15.497Z,97553.06
2022-11-29T15:22:52.444Z,97544.44
2022-11-29T15:25:23.135Z,97546.47
2022-11-29T15:27:59.823Z,97548.31
2022-11-29T15:30:31.414Z,97553.66
2022-11-29T15:32:59.078Z,97544.25
2022-11-29T15:35:25.607Z,97543.31
2022-11-29T15:37:53.614Z,97548.59
2022-11-29T15:40:22.787Z,97549.88
2022-11-29T15:43:02.269Z,97548.84
2022-11-29T15:45:31.687Z,97549.63
2022-11-29T15:48:12.519Z,97552.31
2022-11-29T15:50:40.147Z,97553.84
2022-11-29T15:53:09.254Z,97555.16
2022-11-29T15:55:36.129Z,97550.59
2022-11-29T15:58:08.486Z,97554.19
2022-11-29T16:00:35.963Z,97541.88
2022-11-29T16:03:04.326Z,97545.25
2022-11-29T16:05:37.785Z,97541.94
2022-11-29T16:08:05.679Z,97548.69
2022-11-29T16:10:36.111Z,97546.94
2022-11-29T16:13:05.606Z,97542.25
2022-11-29T16:15:37.287Z,97544.63
2022-11-29T16:18:05.112Z,97545.34
2022-11-29T16:20:31.728Z,97550.88
2022-11-29T16:23:08.934Z,97545.84
2022-11-29T16:25:48.281Z,97542.44
2022-11-29T16:28:14.914Z,97553.59
2022-11-29T16:30:42.520Z,97550.13
2022-11-29T16:33:17.527Z,97552.38
2022-11-29T16:35:44.022Z,97550.81
2022-11-29T16:38:18.662Z,97550.19
2022-11-29T16:41:02.503Z,97548.41
2022-11-29T16:43:54.077Z,97549.56
2022-11-29T16:46:28.980Z,97544.06
2022-11-29T16:48:57.830Z,97554.13
2022-11-29T16:51:44.465Z,97560.91
2022-11-29T16:54:34.387Z,97554.13
2022-11-29T16:57:05.711Z,97555.09
2022-11-29T16:59:32.556Z,97552.56
2022-11-29T17:01:59.103Z,97559.31
2022-11-29T17:04:25.962Z,97556.66
2022-11-29T17:06:56.211Z,97554.47
2022-11-29T17:09:28.888Z,97555.09
2022-11-29T17:11:56.010Z,97557.63
2022-11-29T17:14:22.720Z,97562.19
2022-11-29T17:16:49.812Z,97549.00
2022-11-29T17:19:16.746Z,97560.63
2022-11-29T17:21:43.302Z,97563.13
2022-11-29T17:24:11.179Z,97562.34
2022-11-29T17:26:37.638Z,97555.94
2022-11-29T17:29:04.051Z,97565.56
2022-11-29T17:31:30.628Z,97563.63
2022-11-29T17:33:59.185Z,97564.22
2022-11-29T17:36:25.671Z,97562.22
2022-11-29T17:38:52.949Z,97566.66
2022-11-29T17:41:22.455Z,97552.47
2022-11-29T17:43:49.401Z,97564.00
2022-11-29T17:46:20.073Z,97559.84
2022-11-29T17:48:46.815Z,97558.19
2022-11-29T17:51:43.881Z,97562.75
2022-11-29T17:54:03.010Z,97568.75
2022-11-29T17:56:29.960Z,97568.91
2022-11-29T17:58:57.771Z,97567.47
2022-11-29T18:01:25.410Z,97566.44
2022-11-29T18:03:53.237Z,97553.69
2022-11-29T18:06:21.221Z,97554.63
2022-11-29T18:08:48.993Z,97549.44
2022-11-29T18:11:15.443Z,97554.97
2022-11-29T18:13:41.849Z,97558.75
2022-11-29T18:16:09.989Z,97566.63
2022-11-29T18:18:36.868Z,97570.72
2022-11-29T18:21:05.330Z,97570.28
2022-11-29T18:23:35.677Z,97570.13
2022-11-29T18:26:03.859Z,97568.72
2022-11-29T18:28:30.815Z,97568.88
2022-11-29T18:30:57.244Z,97579.75
2022-11-29T18:33:23.878Z,97577.69
2022-11-29T18:35:50.667Z,97575.34
2022-11-29T18:38:17.154Z,97584.03
2022-11-29T18:40:45.843Z,97580.06
2022-11-29T18:43:12.910Z,97585.91
2022-11-29T18:45:39.355Z,97592.38
2022-11-29T18:48:05.912Z,97586.22
2022-11-29T18:50:34.941Z,97578.03
2022-11-29T18:53:01.354Z,97586.72
2022-11-29T18:55:27.997Z,97597.25
2022-11-29T18:57:55.219Z,97587.78
2022-11-29T19:00:21.977Z,97601.03
2022-11-29T19:02:48.425Z,97600.53
2022-11-29T19:05:14.894Z,97605.91
2022-11-29T19:07:41.348Z,97592.47
2022-11-29T19:10:08.255Z,97595.16
2022-11-29T19:12:34.678Z,97590.91
2022-11-29T19:15:01.079Z,97590.47
2022-11-29T19:17:27.509Z,97593.19
2022-11-29T19:19:53.897Z,97584.91
2022-11-29T19:22:20.325Z,97599.34
2022-11-29T19:24:47.122Z,97608.91
2022-11-29T19:27:13.666Z,97602.53
2022-11-29T19:29:40.261Z,97589.75
2022-11-29T20:47:46.704Z,97606.59
2022-11-29T20:50:24.208Z,97612.28
2022-11-29T20:53:03.648Z,97597.09
2022-11-29T20:55:30.241Z,97597.56
2022-11-29T20:57:56.886Z,97598.88
2022-11-29T21:00:23.474Z,97595.22
2022-11-29T21:02:50.111Z,97599.56
2022-11-29T21:05:16.762Z,97589.34
2022-11-29T21:07:44.073Z,97603.63
2022-11-29T21:10:10.958Z,97596.19
2022-11-29T21:12:38.706Z,97603.88
2022-11-29T21:15:05.695Z,97599.34
2022-11-29T21:17:36.789Z,97602.34
2022-11-29T21:20:03.950Z,97596.78
2022-11-29T21:22:48.883Z,97607.16
2022-11-29T21:25:21.290Z,97615.91
2022-11-29T21:27:48.123Z,97597.44
